createdAt,value
2019-03-31T00:01:07.820Z,1032.61
2019-03-31T00:01:59.791Z,1032.59
2019-03-31T00:02:59.783Z,1032.59
2019-03-31T00:03:59.769Z,1032.56
2019-03-31T00:04:59.760Z,1032.54
2019-03-31T00:05:59.745Z,1032.53
2019-03-31T00:06:59.738Z,1032.51
2019-03-31T00:07:59.723Z,1032.55
2019-03-31T00:08:59.742Z,1032.58
2019-03-31T00:09:59.699Z,1032.57
2019-03-31T00:11:00.697Z,1032.57
2019-03-31T00:11:59.682Z,1032.5
2019-03-31T00:12:59.665Z,1032.5
2019-03-31T00:13:59.654Z,1032.48
2019-03-31T00:14:59.647Z,1032.5
2019-03-31T00:15:59.637Z,1032.48
2019-03-31T00:16:59.626Z,1032.47
2019-03-31T00:17:59.609Z,1032.48
2019-03-31T00:18:59.602Z,1032.47
2019-03-31T00:19:59.591Z,1032.43
2019-03-31T00:20:59.580Z,1032.45
2019-03-31T00:21:59.564Z,1032.45
2019-03-31T00:22:59.556Z,1032.52
2019-03-31T00:23:59.544Z,1032.49
2019-03-31T00:24:59.531Z,1032.47
2019-03-31T00:25:59.523Z,1032.47
2019-03-31T00:26:59.512Z,1032.44
2019-03-31T00:27:59.501Z,1032.43
2019-03-31T00:28:59.485Z,1032.43
2019-03-31T00:29:59.472Z,1032.41
2019-03-31T00:30:59.465Z,1032.44
2019-03-31T00:31:59.455Z,1032.42
2019-03-31T00:32:59.444Z,1032.43
2019-03-31T00:33:59.428Z,1032.41
2019-03-31T00:34:59.421Z,1032.42
2019-03-31T00:35:59.404Z,1032.43
2019-03-31T00:36:59.399Z,1032.44
2019-03-31T00:37:59.383Z,1032.45
2019-03-31T00:38:59.376Z,1032.41
2019-03-31T00:39:59.363Z,1032.4
2019-03-31T00:40:59.354Z,1032.39
2019-03-31T00:41:59.338Z,1032.42
2019-03-31T00:42:59.326Z,1032.35
2019-03-31T00:43:59.316Z,1032.38
2019-03-31T00:44:59.309Z,1032.34
2019-03-31T00:45:59.297Z,1032.38
2019-03-31T00:47:02.003Z,1032.37
2019-03-31T00:47:59.271Z,1032.35
2019-03-31T00:48:59.263Z,1032.38
2019-03-31T00:49:59.255Z,1032.38
2019-03-31T00:50:59.244Z,1032.37
2019-03-31T00:51:59.226Z,1032.36
2019-03-31T00:52:59.218Z,1032.34
2019-03-31T00:53:59.204Z,1032.31
2019-03-31T00:54:59.196Z,1032.26
2019-03-31T00:55:59.180Z,1032.26
2019-03-31T00:56:59.173Z,1032.23
2019-03-31T00:57:59.159Z,1032.26
2019-03-31T00:58:59.147Z,1032.23
2019-03-31T00:59:59.140Z,1032.23
2019-03-31T01:00:59.133Z,1032.18
2019-03-31T01:01:59.120Z,1032.18
2019-03-31T01:02:59.103Z,1032.19
2019-03-31T01:03:59.090Z,1032.19
2019-03-31T01:04:59.080Z,1032.17
2019-03-31T01:05:59.075Z,1032.22
2019-03-31T01:06:59.058Z,1032.16
2019-03-31T01:07:59.051Z,1032.12
2019-03-31T01:08:59.036Z,1032.19
2019-03-31T01:09:59.029Z,1032.17
2019-03-31T01:10:59.013Z,1032.13
2019-03-31T01:11:59.009Z,1032.11
2019-03-31T01:12:58.993Z,1032.1
2019-03-31T01:13:58.985Z,1032.07
2019-03-31T01:14:58.969Z,1032.09
2019-03-31T01:15:58.957Z,1032.08
2019-03-31T01:16:58.952Z,1032.06
2019-03-31T01:17:58.942Z,1032.09
2019-03-31T01:18:58.926Z,1032.11
2019-03-31T01:19:58.915Z,1032.15
2019-03-31T01:20:58.904Z,1032.15
2019-03-31T01:21:58.896Z,1032.18
2019-03-31T01:22:58.883Z,1032.22
2019-03-31T01:23:58.875Z,1032.27
2019-03-31T01:24:58.860Z,1032.27
2019-03-31T01:26:00.455Z,1032.29
2019-03-31T01:26:58.838Z,1032.28
2019-03-31T01:27:58.832Z,1032.31
2019-03-31T01:28:58.816Z,1032.37
2019-03-31T01:29:58.810Z,1032.35
2019-03-31T01:30:58.800Z,1032.42
2019-03-31T01:31:58.791Z,1032.41
2019-03-31T01:32:58.773Z,1032.44
2019-03-31T01:33:58.761Z,1032.46
2019-03-31T01:34:58.756Z,1032.5
2019-03-31T01:35:58.745Z,1032.47
2019-03-31T01:36:58.736Z,1032.52
2019-03-31T01:37:58.720Z,1032.51
2019-03-31T01:38:58.713Z,1032.49
2019-03-31T01:39:58.701Z,1032.48
2019-03-31T01:40:58.687Z,1032.51
2019-03-31T01:41:58.679Z,1032.47
2019-03-31T01:42:58.668Z,1032.52
2019-03-31T01:43:58.661Z,1032.48
2019-03-31T01:44:58.642Z,1032.52
2019-03-31T01:45:58.636Z,1032.51
2019-03-31T01:46:58.623Z,1032.55
2019-03-31T01:47:58.612Z,1032.57
2019-03-31T01:48:58.598Z,1032.6
2019-03-31T01:49:58.587Z,1032.57
2019-03-31T01:50:58.579Z,1032.58
2019-03-31T01:51:58.568Z,1032.63
2019-03-31T01:52:58.554Z,1032.64
2019-03-31T01:53:58.547Z,1032.66
2019-03-31T01:54:58.531Z,1032.67
2019-03-31T01:55:58.524Z,1032.68
2019-03-31T01:56:58.511Z,1032.7
2019-03-31T01:57:58.501Z,1032.7
2019-03-31T01:58:58.486Z,1032.77
2019-03-31T01:59:58.478Z,1032.78
2019-03-31T02:00:58.463Z,1032.82
2019-03-31T02:02:04.250Z,1032.84
2019-03-31T02:02:58.445Z,1032.86
2019-03-31T02:03:58.434Z,1032.85
2019-03-31T02:04:58.418Z,1032.86
2019-03-31T02:05:58.411Z,1032.91
2019-03-31T02:06:58.397Z,1032.87
2019-03-31T02:07:58.385Z,1032.9
2019-03-31T02:08:58.373Z,1032.89
2019-03-31T02:09:58.365Z,1032.89
2019-03-31T02:10:58.350Z,1032.91
2019-03-31T02:11:58.343Z,1032.94
2019-03-31T02:12:58.334Z,1032.93
2019-03-31T02:13:58.323Z,1032.92
2019-03-31T02:14:58.306Z,1032.94
2019-03-31T02:15:58.297Z,1032.95
2019-03-31T02:16:58.280Z,1032.93
2019-03-31T02:17:58.274Z,1032.92
2019-03-31T02:18:58.262Z,1032.9
2019-03-31T02:19:58.250Z,1032.91
2019-03-31T02:20:58.235Z,1032.93
2019-03-31T02:21:58.223Z,1032.93
2019-03-31T02:22:58.216Z,1032.93
2019-03-31T02:23:58.204Z,1032.96
2019-03-31T02:24:58.195Z,1032.96
2019-03-31T02:25:58.178Z,1032.98
2019-03-31T02:26:58.171Z,1032.98
2019-03-31T02:27:58.154Z,1032.98
2019-03-31T02:28:58.147Z,1032.99
2019-03-31T02:29:58.131Z,1032.95
2019-03-31T02:30:58.124Z,1032.96
2019-03-31T02:31:58.113Z,1032.94
2019-03-31T02:32:58.098Z,1032.95
2019-03-31T02:33:58.094Z,1032.96
2019-03-31T02:34:58.080Z,1032.98
2019-03-31T02:35:58.066Z,1032.99
2019-03-31T02:36:58.050Z,1033.03
2019-03-31T02:37:58.051Z,1033.04
2019-03-31T02:38:58.032Z,1033.05
2019-03-31T02:39:58.020Z,1033.03
2019-03-31T02:40:58.010Z,1033.08
2019-03-31T02:41:57.993Z,1033.08
2019-03-31T02:42:57.990Z,1033.07
2019-03-31T02:43:57.970Z,1033.09
2019-03-31T02:44:57.963Z,1033.07
2019-03-31T02:45:57.946Z,1033.1
2019-03-31T02:46:57.943Z,1033.03
2019-03-31T02:47:58.018Z,1033.1
2019-03-31T02:48:57.920Z,1033.14
2019-03-31T02:49:57.900Z,1033.14
2019-03-31T02:50:57.889Z,1033.16
2019-03-31T02:51:57.932Z,1033.15
2019-03-31T02:52:57.868Z,1033.15
2019-03-31T02:53:57.858Z,1033.18
2019-03-31T02:54:57.841Z,1033.24
2019-03-31T02:55:57.830Z,1033.25
2019-03-31T02:56:57.823Z,1033.27
2019-03-31T02:57:57.806Z,1033.26
2019-03-31T02:58:57.799Z,1033.24
2019-03-31T02:59:57.783Z,1033.29
2019-03-31T03:00:57.779Z,1033.28
2019-03-31T03:01:57.772Z,1033.29
2019-03-31T03:02:57.753Z,1033.28
2019-03-31T03:03:57.735Z,1033.26
2019-03-31T03:04:57.729Z,1033.29
2019-03-31T03:05:57.713Z,1033.31
2019-03-31T03:06:57.701Z,1033.32
2019-03-31T03:07:57.689Z,1033.3
2019-03-31T03:08:57.682Z,1033.28
2019-03-31T03:09:57.671Z,1033.31
2019-03-31T03:10:57.654Z,1033.33
2019-03-31T03:11:57.648Z,1033.35
2019-03-31T03:12:57.632Z,1033.35
2019-03-31T03:13:57.623Z,1033.37
2019-03-31T03:14:57.607Z,1033.34
2019-03-31T03:15:57.603Z,1033.34
2019-03-31T03:16:57.585Z,1033.34
2019-03-31T03:17:57.578Z,1033.34
2019-03-31T03:18:57.560Z,1033.38
2019-03-31T03:19:57.555Z,1033.36
2019-03-31T03:20:57.540Z,1033.38
2019-03-31T03:21:57.529Z,1033.34
2019-03-31T03:22:57.513Z,1033.39
2019-03-31T03:23:57.501Z,1033.41
2019-03-31T03:24:57.496Z,1033.45
2019-03-31T03:25:57.484Z,1033.47
2019-03-31T03:26:57.478Z,1033.46
2019-03-31T03:27:57.455Z,1033.49
2019-03-31T03:28:57.445Z,1033.51
2019-03-31T03:29:57.434Z,1033.52
2019-03-31T03:30:57.728Z,1033.54
2019-03-31T03:31:57.477Z,1033.56
2019-03-31T03:33:14.265Z,1033.58
2019-03-31T03:33:57.391Z,1033.57
2019-03-31T03:34:57.379Z,1033.62
2019-03-31T03:35:57.363Z,1033.59
2019-03-31T03:36:57.347Z,1033.62
2019-03-31T03:37:57.340Z,1033.64
2019-03-31T03:38:57.350Z,1033.69
2019-03-31T03:39:57.316Z,1033.67
2019-03-31T03:40:57.300Z,1033.68
2019-03-31T03:41:57.287Z,1033.67
2019-03-31T03:42:57.282Z,1033.68
2019-03-31T03:44:02.069Z,1033.7
2019-03-31T03:44:57.265Z,1033.66
2019-03-31T03:45:57.240Z,1033.72
2019-03-31T03:46:57.235Z,1033.74
2019-03-31T03:47:57.219Z,1033.75
2019-03-31T03:48:57.261Z,1033.77
2019-03-31T03:49:57.196Z,1033.81
2019-03-31T03:50:57.182Z,1033.76
2019-03-31T03:51:57.194Z,1033.78
2019-03-31T03:52:57.156Z,1033.83
2019-03-31T03:53:57.152Z,1033.8
2019-03-31T03:54:57.138Z,1033.86
2019-03-31T03:55:57.124Z,1033.81
2019-03-31T03:56:57.108Z,1033.86
2019-03-31T03:57:57.096Z,1033.92
2019-03-31T03:58:57.088Z,1033.88
2019-03-31T03:59:57.076Z,1033.9
2019-03-31T04:00:57.065Z,1033.87
2019-03-31T04:01:57.048Z,1033.93
2019-03-31T04:02:57.041Z,1033.93
2019-03-31T04:03:57.026Z,1033.91
2019-03-31T04:04:57.030Z,1033.94
2019-03-31T04:05:56.998Z,1033.99
2019-03-31T04:06:57.023Z,1033.96
2019-03-31T04:07:56.975Z,1033.98
2019-03-31T04:08:56.970Z,1033.94
2019-03-31T04:09:56.949Z,1033.94
2019-03-31T04:10:56.938Z,1033.94
2019-03-31T04:11:56.926Z,1033.96
2019-03-31T04:12:56.924Z,1033.94
2019-03-31T04:13:56.902Z,1033.95
2019-03-31T04:14:56.894Z,1033.94
2019-03-31T04:15:56.883Z,1033.98
2019-03-31T04:16:56.870Z,1034.01
2019-03-31T04:17:56.857Z,1034.05
2019-03-31T04:18:56.845Z,1034.03
2019-03-31T04:19:56.837Z,1034.03
2019-03-31T04:20:56.823Z,1034.08
2019-03-31T04:21:56.805Z,1034.07
2019-03-31T04:22:56.795Z,1034.1
2019-03-31T04:23:56.781Z,1034.1
2019-03-31T04:24:56.771Z,1034.14
2019-03-31T04:25:56.757Z,1034.14
2019-03-31T04:26:56.744Z,1034.15
2019-03-31T04:27:56.730Z,1034.18
2019-03-31T04:28:56.723Z,1034.16
2019-03-31T04:29:56.710Z,1034.2
2019-03-31T04:30:56.695Z,1034.18
2019-03-31T04:31:56.680Z,1034.24
2019-03-31T04:32:56.668Z,1034.24
2019-03-31T04:33:56.690Z,1034.28
2019-03-31T04:34:56.648Z,1034.25
2019-03-31T04:35:56.636Z,1034.28
2019-03-31T04:36:56.619Z,1034.3
2019-03-31T04:37:56.612Z,1034.3
2019-03-31T04:38:59.998Z,1034.31
2019-03-31T04:39:56.583Z,1034.32
2019-03-31T04:40:56.578Z,1034.36
2019-03-31T04:41:56.556Z,1034.42
2019-03-31T04:42:56.543Z,1034.41
2019-03-31T04:43:56.531Z,1034.39
2019-03-31T04:44:56.524Z,1034.42
2019-03-31T04:45:56.512Z,1034.43
2019-03-31T04:46:56.496Z,1034.47
2019-03-31T04:47:56.484Z,1034.44
2019-03-31T04:48:56.471Z,1034.45
2019-03-31T04:49:56.462Z,1034.44
2019-03-31T04:50:56.447Z,1034.47
2019-03-31T04:51:56.441Z,1034.46
2019-03-31T04:52:56.423Z,1034.5
2019-03-31T04:53:56.419Z,1034.47
2019-03-31T04:54:56.398Z,1034.5
2019-03-31T04:55:56.389Z,1034.5
2019-03-31T04:56:56.374Z,1034.51
2019-03-31T04:57:56.363Z,1034.49
2019-03-31T04:58:56.352Z,1034.51
2019-03-31T04:59:56.339Z,1034.54
2019-03-31T05:00:56.321Z,1034.54
2019-03-31T05:01:56.311Z,1034.55
2019-03-31T05:02:56.305Z,1034.53
2019-03-31T05:04:04.242Z,1034.56
2019-03-31T05:04:56.272Z,1034.53
2019-03-31T05:05:56.265Z,1034.49
2019-03-31T05:06:56.247Z,1034.5
2019-03-31T05:07:56.239Z,1034.45
2019-03-31T05:08:56.223Z,1034.45
2019-03-31T05:09:56.215Z,1034.39
2019-03-31T05:10:56.199Z,1034.39
2019-03-31T05:11:56.190Z,1034.35
2019-03-31T05:12:56.175Z,1034.35
2019-03-31T05:13:56.167Z,1034.33
2019-03-31T05:14:56.154Z,1034.31
2019-03-31T05:15:56.143Z,1034.29
2019-03-31T05:16:56.129Z,1034.22
2019-03-31T05:17:56.119Z,1034.18
2019-03-31T05:18:56.111Z,1034.11
2019-03-31T05:19:56.091Z,1034.06
2019-03-31T05:20:56.078Z,1033.96
2019-03-31T05:21:56.071Z,1033.93
2019-03-31T05:22:56.059Z,1033.87
2019-03-31T05:23:56.047Z,1033.82
2019-03-31T05:24:56.032Z,1033.79
2019-03-31T05:25:56.027Z,1033.67
2019-03-31T05:26:56.008Z,1033.63
2019-03-31T05:27:56.002Z,1033.51
2019-03-31T05:28:55.986Z,1033.47
2019-03-31T05:29:55.979Z,1033.44
2019-03-31T05:30:55.972Z,1033.38
2019-03-31T05:31:55.956Z,1033.3
2019-03-31T05:32:55.950Z,1033.28
2019-03-31T05:33:55.935Z,1033.22
2019-03-31T05:34:55.920Z,1033.12
2019-03-31T05:35:55.911Z,1033.07
2019-03-31T05:36:55.902Z,1032.96
2019-03-31T05:37:55.893Z,1032.82
2019-03-31T05:38:55.878Z,1032.75
2019-03-31T05:39:55.874Z,1032.72
2019-03-31T05:40:55.859Z,1032.57
2019-03-31T05:41:55.852Z,1032.5
2019-03-31T05:42:55.838Z,1032.44
2019-03-31T05:44:05.342Z,1032.35
2019-03-31T05:44:55.896Z,1032.29
2019-03-31T05:45:55.813Z,1032.18
2019-03-31T05:46:55.803Z,1032.08
2019-03-31T05:47:55.794Z,1032.01
2019-03-31T05:48:55.781Z,1031.93
2019-03-31T05:49:55.771Z,1031.8
2019-03-31T05:50:55.767Z,1031.78
2019-03-31T05:51:55.757Z,1031.73
2019-03-31T05:52:55.749Z,1031.64
2019-03-31T05:53:55.736Z,1031.56
2019-03-31T05:54:55.732Z,1031.53
2019-03-31T05:55:55.723Z,1031.42
2019-03-31T05:56:55.712Z,1031.33
2019-03-31T05:57:55.707Z,1031.3
2019-03-31T05:58:55.698Z,1031.21
2019-03-31T05:59:55.693Z,1031.16
2019-03-31T06:00:55.679Z,1031.04
2019-03-31T06:01:55.678Z,1030.96
2019-03-31T06:02:55.668Z,1030.8
2019-03-31T06:03:55.661Z,1030.74
2019-03-31T06:04:55.650Z,1030.72
2019-03-31T06:05:55.643Z,1030.64
2019-03-31T06:06:55.640Z,1030.62
2019-03-31T06:07:55.634Z,1030.66
2019-03-31T06:08:55.627Z,1030.55
2019-03-31T06:09:55.616Z,1030.54
2019-03-31T06:10:55.613Z,1030.56
2019-03-31T06:11:55.606Z,1030.5
2019-03-31T06:12:55.602Z,1030.54
2019-03-31T06:13:55.591Z,1030.5
2019-03-31T06:14:55.589Z,1030.49
2019-03-31T06:15:55.593Z,1030.46
2019-03-31T06:16:55.578Z,1030.43
2019-03-31T06:17:55.567Z,1030.34
2019-03-31T06:18:55.561Z,1030.28
2019-03-31T06:19:55.556Z,1030.29
2019-03-31T06:20:55.555Z,1030.15
2019-03-31T06:21:55.546Z,1030.09
2019-03-31T06:22:55.547Z,1030.07
2019-03-31T06:23:55.540Z,1030.07
2019-03-31T06:24:55.535Z,1030.12
2019-03-31T06:25:55.525Z,1030.06
2019-03-31T06:26:55.525Z,1030.26
2019-03-31T06:27:55.516Z,1030.28
2019-03-31T07:11:55.257Z,1029.99
2019-03-31T07:12:55.246Z,1029.81
2019-03-31T07:13:55.246Z,1029.74
2019-03-31T07:14:55.237Z,1029.57
2019-03-31T07:15:55.236Z,1029.53
2019-03-31T07:16:55.238Z,1029.41
2019-03-31T07:17:55.229Z,1029.28
2019-03-31T07:18:55.220Z,1029.19
2019-03-31T07:19:55.220Z,1029.02
2019-03-31T07:20:55.216Z,1028.84
2019-03-31T07:21:55.209Z,1028.72
2019-03-31T07:22:55.206Z,1028.72
2019-03-31T07:23:55.202Z,1028.58
2019-03-31T07:24:55.204Z,1028.46
2019-03-31T07:25:55.203Z,1028.48
2019-03-31T07:26:55.198Z,1028.42
2019-03-31T07:27:55.191Z,1028.36
2019-03-31T07:28:55.195Z,1028.34
2019-03-31T07:29:55.189Z,1028.16
2019-03-31T07:30:55.187Z,1028.36
2019-03-31T07:31:55.190Z,1028.27
2019-03-31T07:32:55.186Z,1028.19
2019-03-31T07:33:55.185Z,1027.98
2019-03-31T07:34:55.184Z,1027.8
2019-03-31T07:35:55.188Z,1028.01
2019-03-31T07:36:55.189Z,1028.13
2019-03-31T07:37:55.182Z,1028.08
2019-03-31T07:38:55.230Z,1028.06
2019-03-31T07:39:55.184Z,1028.07
2019-03-31T07:40:55.428Z,1027.73
2019-03-31T07:41:55.436Z,1028.14
2019-03-31T07:42:55.234Z,1028.57
2019-03-31T07:43:55.191Z,1028.29
2019-03-31T07:44:55.188Z,1028.11
2019-03-31T07:45:55.888Z,1028.55
2019-03-31T07:46:55.188Z,1029.38
2019-03-31T07:47:55.193Z,1029.28
2019-03-31T07:48:55.188Z,1029.74
2019-03-31T07:49:55.192Z,1029.64
2019-03-31T07:50:55.189Z,1029.58
2019-03-31T07:51:55.193Z,1029.97
2019-03-31T07:52:55.192Z,1030.2
2019-03-31T07:53:55.189Z,1030.62
2019-03-31T07:54:55.187Z,1030.28
2019-03-31T07:55:55.195Z,1029.84
2019-03-31T07:56:55.186Z,1029.63
2019-03-31T07:57:55.190Z,1029.68
2019-03-31T07:58:55.185Z,1029.46
2019-03-31T07:59:56.677Z,1029.19
2019-03-31T08:00:55.183Z,1029.08
2019-03-31T08:01:55.186Z,1029.21
2019-03-31T08:02:55.182Z,1029.64
2019-03-31T08:03:55.184Z,1029.88
2019-03-31T08:04:55.182Z,1030.24
2019-03-31T08:05:55.178Z,1030.26
2019-03-31T08:06:55.177Z,1030.68
2019-03-31T08:07:55.184Z,1031.14
2019-03-31T08:08:55.179Z,1031.42
2019-03-31T08:09:55.173Z,1031.7
2019-03-31T08:10:55.170Z,1032.03
2019-03-31T08:11:55.169Z,1032.33
2019-03-31T08:12:55.174Z,1032.72
2019-03-31T08:13:55.488Z,1032.95
2019-03-31T08:14:55.164Z,1033.14
2019-03-31T08:15:55.157Z,1033.4
2019-03-31T08:16:55.159Z,1033.64
2019-03-31T08:17:55.151Z,1033.66
2019-03-31T08:18:55.151Z,1033.62
2019-03-31T08:19:55.143Z,1033.64
2019-03-31T08:20:55.143Z,1033.57
2019-03-31T08:21:55.134Z,1033.51
2019-03-31T08:22:57.027Z,1033.48
2019-03-31T08:23:55.130Z,1033.43
2019-03-31T08:24:55.126Z,1033.32
2019-03-31T08:25:55.116Z,1033.28
2019-03-31T08:26:55.111Z,1033.24
2019-03-31T08:27:55.106Z,1033.23
2019-03-31T08:28:58.348Z,1033.32
2019-03-31T08:30:00.301Z,1033.41
2019-03-31T08:30:55.101Z,1033.53
2019-03-31T08:31:55.085Z,1033.54
2019-03-31T08:32:55.085Z,1033.53
2019-03-31T08:33:55.076Z,1033.4
2019-03-31T08:34:55.071Z,1033.57
2019-03-31T08:35:55.066Z,1033.53
2019-03-31T08:36:55.064Z,1033.62
2019-03-31T08:37:55.061Z,1033.76
2019-03-31T08:38:55.050Z,1033.86
2019-03-31T08:39:55.043Z,1033.98
2019-03-31T08:40:55.037Z,1034.07
2019-03-31T08:41:55.036Z,1034.26
2019-03-31T08:42:55.027Z,1034.28
2019-03-31T08:43:55.027Z,1034.4
2019-03-31T08:44:55.014Z,1034.4
2019-03-31T08:45:55.012Z,1034.49
2019-03-31T08:46:55.008Z,1034.56
2019-03-31T08:47:54.996Z,1034.63
2019-03-31T08:48:54.994Z,1034.67
2019-03-31T08:49:54.984Z,1034.62
2019-03-31T08:50:54.984Z,1034.57
2019-03-31T08:51:54.971Z,1034.57
2019-03-31T08:52:54.969Z,1034.57
2019-03-31T08:53:54.963Z,1034.63
2019-03-31T08:54:54.951Z,1034.62
2019-03-31T08:55:54.945Z,1034.75
2019-03-31T08:56:54.939Z,1034.81
2019-03-31T08:57:54.937Z,1034.88
2019-03-31T08:58:54.925Z,1034.96
2019-03-31T08:59:54.923Z,1035.01
2019-03-31T09:00:54.913Z,1035.07
2019-03-31T09:01:54.910Z,1035.12
2019-03-31T09:02:54.900Z,1035.16
2019-03-31T09:03:54.897Z,1035.17
2019-03-31T09:04:54.885Z,1035.19
2019-03-31T09:06:01.358Z,1035.2
2019-03-31T09:06:54.875Z,1035.19
2019-03-31T09:07:54.872Z,1035.28
2019-03-31T09:08:54.858Z,1035.3
2019-03-31T09:09:54.852Z,1035.35
2019-03-31T09:10:54.848Z,1035.4
2019-03-31T09:11:54.840Z,1035.43
2019-03-31T09:12:54.828Z,1035.48
2019-03-31T09:13:54.825Z,1035.6
2019-03-31T09:14:54.813Z,1035.54
2019-03-31T09:15:54.811Z,1035.41
2019-03-31T09:16:54.799Z,1035.36
2019-03-31T09:17:54.797Z,1035.17
2019-03-31T09:18:54.785Z,1035.01
2019-03-31T09:19:54.782Z,1034.88
2019-03-31T09:20:54.770Z,1034.87
2019-03-31T09:21:54.768Z,1034.81
2019-03-31T09:22:54.760Z,1034.81
2019-03-31T09:23:54.752Z,1034.73
2019-03-31T09:24:54.741Z,1034.68
2019-03-31T09:25:54.740Z,1034.69
2019-03-31T09:26:54.727Z,1034.62
2019-03-31T09:27:54.725Z,1034.55
2019-03-31T09:28:54.713Z,1034.48
2019-03-31T09:29:54.710Z,1034.5
2019-03-31T09:30:54.702Z,1034.57
2019-03-31T09:31:54.696Z,1034.7
2019-03-31T09:32:54.686Z,1034.75
2019-03-31T09:33:54.684Z,1034.94
2019-03-31T09:34:54.671Z,1034.93
2019-03-31T09:35:54.668Z,1034.91
2019-03-31T09:36:54.658Z,1034.81
2019-03-31T09:37:54.655Z,1034.74
2019-03-31T09:38:54.643Z,1034.65
2019-03-31T09:39:54.637Z,1034.67
2019-03-31T09:40:54.635Z,1034.62
2019-03-31T09:41:54.626Z,1034.59
2019-03-31T09:42:54.617Z,1034.65
2019-03-31T09:43:54.609Z,1034.62
2019-03-31T09:44:54.602Z,1034.68
2019-03-31T09:45:54.598Z,1034.73
2019-03-31T09:46:54.588Z,1034.81
2019-03-31T09:47:54.587Z,1034.81
2019-03-31T09:48:54.575Z,1034.89
2019-03-31T09:49:54.572Z,1034.91
2019-03-31T09:50:56.535Z,1034.91
2019-03-31T09:51:54.558Z,1034.98
2019-03-31T09:52:54.546Z,1034.91
2019-03-31T09:53:54.546Z,1034.83
2019-03-31T09:54:54.537Z,1034.74
2019-03-31T09:55:54.531Z,1034.66
2019-03-31T09:56:54.520Z,1034.49
2019-03-31T09:57:54.514Z,1034.36
2019-03-31T09:58:54.511Z,1034.09
2019-03-31T09:59:54.504Z,1033.85
2019-03-31T10:00:54.497Z,1033.78
2019-03-31T10:01:54.486Z,1033.68
2019-03-31T10:02:54.485Z,1033.71
2019-03-31T10:03:54.477Z,1033.81
2019-03-31T10:04:54.468Z,1033.78
2019-03-31T10:05:54.466Z,1033.76
2019-03-31T10:06:54.455Z,1033.64
2019-03-31T10:07:54.453Z,1033.63
2019-03-31T10:08:54.443Z,1033.59
2019-03-31T10:09:54.443Z,1033.55
2019-03-31T10:10:54.435Z,1033.57
2019-03-31T10:11:54.428Z,1033.64
2019-03-31T10:12:54.417Z,1033.72
2019-03-31T10:13:54.413Z,1033.77
2019-03-31T10:14:54.481Z,1033.84
2019-03-31T10:15:54.405Z,1033.94
2019-03-31T10:16:54.399Z,1034.02
2019-03-31T10:17:54.389Z,1034.1
2019-03-31T10:18:54.389Z,1034.27
2019-03-31T10:19:54.377Z,1034.37
2019-03-31T10:20:54.375Z,1034.46
2019-03-31T10:21:54.365Z,1034.56
2019-03-31T10:22:54.366Z,1034.58
2019-03-31T10:23:54.352Z,1034.69
2019-03-31T10:24:54.352Z,1034.84
2019-03-31T10:25:54.338Z,1034.96
2019-03-31T10:26:54.333Z,1035.04
2019-03-31T10:27:54.327Z,1035.19
2019-03-31T10:28:54.327Z,1035.27
2019-03-31T10:29:54.313Z,1035.35
2019-03-31T10:30:54.311Z,1035.47
2019-03-31T10:31:54.305Z,1035.54
2019-03-31T10:32:54.299Z,1035.56
2019-03-31T10:33:54.288Z,1035.64
2019-03-31T10:34:54.285Z,1035.7
2019-03-31T10:35:54.274Z,1035.8
2019-03-31T10:36:54.272Z,1035.8
2019-03-31T10:37:54.258Z,1035.93
2019-03-31T10:38:54.261Z,1035.96
2019-03-31T10:39:54.246Z,1035.96
2019-03-31T10:40:54.242Z,1036.04
2019-03-31T10:41:54.231Z,1036.06
2019-03-31T10:42:54.222Z,1036.13
2019-03-31T10:43:54.217Z,1036.01
2019-03-31T10:44:54.213Z,1036.09
2019-03-31T10:45:54.206Z,1036.11
2019-03-31T10:46:54.193Z,1036.11
2019-03-31T10:47:54.186Z,1036.12
2019-03-31T10:48:54.178Z,1036.15
2019-03-31T10:49:54.175Z,1036.16
2019-03-31T10:50:54.163Z,1036.19
2019-03-31T10:51:54.159Z,1036.18
2019-03-31T10:52:54.147Z,1036.19
2019-03-31T10:53:54.144Z,1036.22
2019-03-31T10:54:54.134Z,1036.24
2019-03-31T10:55:54.124Z,1036.18
2019-03-31T10:56:54.123Z,1036.03
2019-03-31T10:57:54.111Z,1035.94
2019-03-31T10:58:54.101Z,1035.72
2019-03-31T10:59:54.094Z,1035.65
2019-03-31T11:00:54.090Z,1035.56
2019-03-31T11:01:54.084Z,1035.37
2019-03-31T11:02:54.069Z,1035.21
2019-03-31T11:03:54.062Z,1035.09
2019-03-31T11:04:54.660Z,1034.94
2019-03-31T11:05:54.051Z,1034.81
2019-03-31T11:06:59.082Z,1034.65
2019-03-31T11:07:54.036Z,1034.46
2019-03-31T11:08:54.026Z,1034.32
2019-03-31T11:09:54.022Z,1034.13
2019-03-31T11:10:54.015Z,1033.99
2019-03-31T11:11:54.011Z,1033.94
2019-03-31T11:12:53.998Z,1033.74
2019-03-31T11:13:54.049Z,1033.66
2019-03-31T11:14:53.987Z,1033.59
2019-03-31T11:15:57.171Z,1033.67
2019-03-31T11:16:53.970Z,1033.68
2019-03-31T11:17:53.964Z,1033.78
2019-03-31T11:18:53.963Z,1033.78
2019-03-31T11:19:53.957Z,1033.74
2019-03-31T11:20:53.946Z,1033.73
2019-03-31T11:21:53.944Z,1033.67
2019-03-31T11:22:53.935Z,1033.6
2019-03-31T11:23:53.933Z,1033.53
2019-03-31T11:24:53.922Z,1033.4
2019-03-31T11:25:53.921Z,1033.42
2019-03-31T11:26:53.912Z,1033.42
2019-03-31T11:27:53.910Z,1033.4
2019-03-31T11:28:53.899Z,1033.26
2019-03-31T11:29:53.899Z,1033.17
2019-03-31T11:30:53.894Z,1033.04
2019-03-31T11:31:53.888Z,1032.96
2019-03-31T11:32:53.880Z,1032.89
2019-03-31T11:33:53.874Z,1032.87
2019-03-31T11:34:53.874Z,1032.9
2019-03-31T11:35:53.868Z,1032.92
2019-03-31T11:36:53.863Z,1032.95
2019-03-31T11:37:53.856Z,1032.86
2019-03-31T11:38:53.853Z,1032.79
2019-03-31T11:39:53.844Z,1032.74
2019-03-31T11:40:53.844Z,1032.6
2019-03-31T11:41:53.837Z,1032.57
2019-03-31T11:42:53.835Z,1032.58
2019-03-31T11:43:53.826Z,1032.71
2019-03-31T11:44:53.826Z,1032.73
2019-03-31T11:45:53.817Z,1032.92
2019-03-31T11:46:53.817Z,1032.99
2019-03-31T11:47:53.814Z,1033.18
2019-03-31T11:48:53.804Z,1033.32
2019-03-31T11:49:53.801Z,1033.38
2019-03-31T11:50:53.800Z,1033.5
2019-03-31T11:51:53.795Z,1033.77
2019-03-31T11:52:53.791Z,1033.95
2019-03-31T11:53:53.782Z,1034.17
2019-03-31T11:54:53.782Z,1034.36
2019-03-31T11:55:53.773Z,1034.57
2019-03-31T11:56:53.775Z,1034.63
2019-03-31T11:57:53.763Z,1034.64
2019-03-31T11:58:53.762Z,1034.59
2019-03-31T11:59:53.758Z,1034.56
2019-03-31T12:00:53.752Z,1034.42
2019-03-31T12:01:53.742Z,1034.37
2019-03-31T12:02:53.749Z,1034.2
2019-03-31T12:03:53.733Z,1034.15
2019-03-31T12:04:53.732Z,1034.13
2019-03-31T12:05:53.729Z,1034.18
2019-03-31T12:06:53.717Z,1034.23
2019-03-31T12:07:53.711Z,1034.21
2019-03-31T12:08:53.705Z,1034.25
2019-03-31T12:09:53.704Z,1034.27
2019-03-31T12:10:53.695Z,1034.23
2019-03-31T12:11:53.689Z,1034.26
2019-03-31T12:12:53.689Z,1034.23
2019-03-31T12:13:53.678Z,1034.29
2019-03-31T12:15:00.078Z,1034.31
2019-03-31T12:15:53.667Z,1034.31
2019-03-31T12:16:53.666Z,1034.32
2019-03-31T12:17:53.655Z,1034.36
2019-03-31T12:18:53.650Z,1034.48
2019-03-31T12:19:53.644Z,1034.54
2019-03-31T12:20:53.646Z,1034.66
2019-03-31T12:21:53.638Z,1034.77
2019-03-31T12:22:53.629Z,1034.82
2019-03-31T12:23:53.621Z,1034.83
2019-03-31T12:24:53.616Z,1034.84
2019-03-31T12:25:53.615Z,1034.81
2019-03-31T12:26:53.604Z,1034.74
2019-03-31T12:27:53.606Z,1034.68
2019-03-31T12:28:53.592Z,1034.65
2019-03-31T12:29:53.591Z,1034.57
2019-03-31T12:30:53.580Z,1034.46
2019-03-31T12:31:53.581Z,1034.31
2019-03-31T12:32:53.569Z,1034.19
2019-03-31T12:33:53.566Z,1034.08
2019-03-31T12:34:53.562Z,1033.8
2019-03-31T12:35:53.556Z,1033.68
2019-03-31T12:36:53.546Z,1033.44
2019-03-31T12:37:53.544Z,1033.34
2019-03-31T12:38:53.991Z,1033.24
2019-03-31T12:39:53.529Z,1033.07
2019-03-31T12:40:53.524Z,1032.99
2019-03-31T12:41:53.523Z,1032.83
2019-03-31T12:42:53.513Z,1032.73
2019-03-31T12:43:53.514Z,1032.71
2019-03-31T12:44:53.502Z,1032.69
2019-03-31T12:45:53.502Z,1032.62
2019-03-31T12:46:56.100Z,1032.62
2019-03-31T12:47:53.493Z,1032.65
2019-03-31T12:48:53.483Z,1032.66
2019-03-31T12:49:53.483Z,1032.7
2019-03-31T12:50:53.476Z,1032.71